createdAt,value
2018-07-15T00:04:03.241Z,65.00
2018-07-15T00:06:39.181Z,65.20
2018-07-15T00:09:14.720Z,66.80
2018-07-15T00:11:51.965Z,67.80
2018-07-15T00:14:28.520Z,65.50
2018-07-15T00:19:38.328Z,66.50
2018-07-15T00:22:14.574Z,67.10
2018-07-15T00:24:50.506Z,65.00
2018-07-15T00:30:00.908Z,67.10
2018-07-15T00:32:36.526Z,67.40
2018-07-15T00:37:47.246Z,65.70
2018-07-15T00:40:24.190Z,67.00
2018-07-15T00:42:59.988Z,67.60
2018-07-15T00:45:35.526Z,65.10
2018-07-15T00:48:10.997Z,65.50
2018-07-15T00:50:44.870Z,67.00
2018-07-15T00:53:19.493Z,67.80
2018-07-15T00:55:55.187Z,65.40
2018-07-15T00:58:32.820Z,64.70
2018-07-15T01:01:08.920Z,66.80
2018-07-15T01:03:43.984Z,67.70
2018-07-15T01:06:19.329Z,65.70
2018-07-15T01:11:28.334Z,66.80
2018-07-15T01:14:04.255Z,68.00
2018-07-15T01:16:40.867Z,66.50
2018-07-15T01:19:16.565Z,63.50
2018-07-15T01:21:51.527Z,65.70
2018-07-15T01:24:26.935Z,66.90
2018-07-15T01:27:01.875Z,67.00
2018-07-15T01:29:37.492Z,66.20
2018-07-15T01:32:13.049Z,66.20
2018-07-15T01:34:48.396Z,66.20
2018-07-15T01:37:23.497Z,65.90
2018-07-15T01:39:58.579Z,65.50
2018-07-15T01:42:35.056Z,65.50
2018-07-15T01:45:11.006Z,65.50
2018-07-15T01:47:46.038Z,66.00
2018-07-15T01:50:21.112Z,66.40
2018-07-15T01:52:56.556Z,66.90
2018-07-15T01:55:31.215Z,67.20
2018-07-15T01:58:06.266Z,67.30
2018-07-15T02:00:41.432Z,67.10
2018-07-15T02:03:17.026Z,63.90
2018-07-15T02:05:52.961Z,62.60
2018-07-15T02:08:28.354Z,60.70
2018-07-15T02:11:03.682Z,59.90
2018-07-15T02:13:39.188Z,60.80
2018-07-15T02:16:13.179Z,61.60
2018-07-15T02:18:47.802Z,61.50
2018-07-15T02:21:23.599Z,62.00
2018-07-15T02:26:32.436Z,62.60
2018-07-15T02:29:07.655Z,62.80
2018-07-15T02:31:44.210Z,63.00
2018-07-15T02:34:20.035Z,63.20
2018-07-15T02:36:55.216Z,64.30
2018-07-15T02:39:30.635Z,63.90
2018-07-15T02:42:06.012Z,64.20
2018-07-15T02:47:15.538Z,64.70
2018-07-15T02:49:50.637Z,64.90
2018-07-15T02:52:26.182Z,64.90
2018-07-15T02:55:02.172Z,65.10
2018-07-15T02:57:37.984Z,65.10
2018-07-15T03:00:13.366Z,65.30
2018-07-15T03:02:50.029Z,65.30
2018-07-15T03:05:26.030Z,65.40
2018-07-15T03:08:01.344Z,65.40
2018-07-15T03:10:36.382Z,65.30
2018-07-15T03:13:10.901Z,65.30
2018-07-15T03:15:46.299Z,65.40
2018-07-15T03:18:21.543Z,66.30
2018-07-15T03:20:58.999Z,65.10
2018-07-15T03:26:07.519Z,65.20
2018-07-15T03:28:42.884Z,64.90
2018-07-15T03:31:17.419Z,64.70
2018-07-15T03:33:51.411Z,64.70
2018-07-15T03:36:26.089Z,64.60
2018-07-15T03:39:00.770Z,64.60
2018-07-15T03:41:36.071Z,64.50
2018-07-15T03:44:11.280Z,64.60
2018-07-15T03:46:46.579Z,64.70
2018-07-15T03:49:22.313Z,64.50
2018-07-15T03:52:04.664Z,64.50
2018-07-15T03:54:40.266Z,64.30
2018-07-15T03:57:16.110Z,64.00
2018-07-15T03:59:51.710Z,65.00
2018-07-15T04:02:27.076Z,64.70
2018-07-15T04:05:01.683Z,65.10
2018-07-15T04:07:36.747Z,65.10
2018-07-15T04:10:12.723Z,65.00
2018-07-15T04:12:48.444Z,64.60
2018-07-15T04:15:23.760Z,65.20
2018-07-15T04:18:03.816Z,65.70
2018-07-15T04:20:40.076Z,65.30
2018-07-15T04:23:15.301Z,65.50
2018-07-15T04:25:52.688Z,65.30
2018-07-15T04:28:27.842Z,65.90
2018-07-15T04:31:02.642Z,65.80
2018-07-15T04:36:10.491Z,65.40
2018-07-15T04:38:47.821Z,65.70
2018-07-15T04:43:58.857Z,65.70
2018-07-15T04:46:34.469Z,65.60
2018-07-15T04:49:10.710Z,65.40
2018-07-15T04:57:34.875Z,65.80
2018-07-15T15:48:22.080Z,59.00
2018-07-15T15:50:55.537Z,58.40
2018-07-15T15:53:29.362Z,57.80
2018-07-15T15:56:03.449Z,56.90
2018-07-15T15:58:37.368Z,55.90
2018-07-15T16:08:09.990Z,47.70
2018-07-15T16:10:43.434Z,49.90
2018-07-15T16:13:16.986Z,51.00
2018-07-15T16:15:50.089Z,50.80
2018-07-15T16:18:23.665Z,50.40
2018-07-15T16:20:56.829Z,50.10
2018-07-15T16:23:30.623Z,49.80
2018-07-15T16:26:03.853Z,49.60
2018-07-15T16:28:37.009Z,49.20
2018-07-15T16:31:10.305Z,49.70
2018-07-15T16:33:43.375Z,48.80
2018-07-15T16:36:16.725Z,48.80
2018-07-15T16:38:49.814Z,49.30
2018-07-15T16:41:23.480Z,48.50
2018-07-15T16:43:56.758Z,48.90
2018-07-15T16:46:30.164Z,48.90
2018-07-15T16:49:03.829Z,48.30
2018-07-15T16:51:37.849Z,48.70
2018-07-15T16:54:14.965Z,48.60
2018-07-15T16:56:48.155Z,48.50
2018-07-15T16:59:21.193Z,48.50
2018-07-15T17:01:54.236Z,48.40
2018-07-15T17:04:27.245Z,48.30
2018-07-15T17:09:32.524Z,48.20
2018-07-15T17:12:05.564Z,48.20
2018-07-15T17:14:38.569Z,48.10
2018-07-15T17:17:11.617Z,48.60
2018-07-15T17:19:44.842Z,52.20
2018-07-15T17:22:17.798Z,53.90
2018-07-15T17:24:50.863Z,52.10
2018-07-15T17:27:24.027Z,51.40
2018-07-15T17:29:57.198Z,50.80
2018-07-15T17:32:31.594Z,50.20
2018-07-15T17:35:04.643Z,49.70
2018-07-15T17:37:38.111Z,53.00
2018-07-15T17:40:11.196Z,55.50
2018-07-15T17:42:44.286Z,56.00
2018-07-15T17:45:19.500Z,54.10
2018-07-15T17:47:52.538Z,53.80
2018-07-15T17:50:25.790Z,54.70
2018-07-15T17:52:58.909Z,57.20
2018-07-15T17:55:31.975Z,58.50
2018-07-15T17:58:04.885Z,56.40
2018-07-15T18:00:37.922Z,55.10
2018-07-15T18:03:12.346Z,54.10
2018-07-15T18:05:45.288Z,57.20
2018-07-15T18:08:19.009Z,58.80
2018-07-15T18:10:52.117Z,59.30
2018-07-15T18:13:25.131Z,56.70
2018-07-15T18:15:58.583Z,55.30
2018-07-15T18:18:31.655Z,54.10
2018-07-15T18:21:04.816Z,56.90
2018-07-15T18:23:37.786Z,58.80
2018-07-15T18:26:10.774Z,59.30
2018-07-15T18:28:44.592Z,56.90
2018-07-15T18:31:17.993Z,55.60
2018-07-15T18:36:22.937Z,58.70
2018-07-15T18:39:01.963Z,60.00
2018-07-15T18:41:35.002Z,58.50
2018-07-15T18:44:08.123Z,56.70
2018-07-15T18:46:42.192Z,59.60
2018-07-15T18:49:15.212Z,61.40
2018-07-15T18:51:48.211Z,61.10
2018-07-15T18:54:21.236Z,58.60
2018-07-15T18:56:54.219Z,58.00
2018-07-15T19:04:32.300Z,61.10
2018-07-15T19:07:05.399Z,58.60
2018-07-15T19:09:38.496Z,59.40
2018-07-15T19:12:11.931Z,62.00
2018-07-15T19:14:44.986Z,63.40
2018-07-15T19:17:17.990Z,60.40
2018-07-15T19:19:51.105Z,58.30
2018-07-15T19:22:24.084Z,59.80
2018-07-15T19:27:28.702Z,63.30
2018-07-15T19:30:02.179Z,60.20
2018-07-15T19:32:35.287Z,59.70
2018-07-15T19:35:08.732Z,62.30
2018-07-15T19:37:42.396Z,63.80
2018-07-15T19:40:15.403Z,62.00
2018-07-15T19:45:21.331Z,60.20
2018-07-15T19:47:54.414Z,62.90
2018-07-15T19:50:27.571Z,64.20
2018-07-15T19:53:00.531Z,61.30
2018-07-15T19:55:33.762Z,59.00
2018-07-15T19:58:07.031Z,60.10
2018-07-15T20:00:40.056Z,62.80
2018-07-15T20:03:13.051Z,64.30
2018-07-15T20:05:46.161Z,60.60
2018-07-15T20:08:19.324Z,58.80
2018-07-15T20:10:52.628Z,61.90
2018-07-15T20:13:26.106Z,63.70
2018-07-15T20:16:00.468Z,63.40
2018-07-15T20:18:33.491Z,60.10
2018-07-15T20:21:13.831Z,60.10
2018-07-15T20:23:46.928Z,63.00
2018-07-15T20:26:20.082Z,64.60
2018-07-15T20:28:53.144Z,62.30
2018-07-15T20:31:26.842Z,59.70
2018-07-15T20:34:00.970Z,62.80
2018-07-15T20:36:34.132Z,64.50
2018-07-15T20:39:07.755Z,64.20
2018-07-15T20:41:40.837Z,60.80
2018-07-15T20:44:13.973Z,62.70
2018-07-15T20:46:47.170Z,64.70
2018-07-15T20:49:21.350Z,66.00
2018-07-15T20:51:54.256Z,62.00
2018-07-15T20:54:27.355Z,59.80
2018-07-15T20:57:00.378Z,63.00
2018-07-15T20:59:33.359Z,64.70
2018-07-15T21:02:06.413Z,65.20
2018-07-15T21:04:39.457Z,64.30
2018-07-15T21:07:12.499Z,63.70
2018-07-15T21:09:45.531Z,63.20
2018-07-15T21:12:18.682Z,62.90
2018-07-15T21:14:51.641Z,62.60
2018-07-15T21:17:25.055Z,62.50
2018-07-15T21:19:58.192Z,62.60
2018-07-15T21:22:31.956Z,63.40
2018-07-15T21:25:04.986Z,62.50
2018-07-15T21:27:37.977Z,62.70
2018-07-15T21:30:11.184Z,62.50
2018-07-15T21:32:44.236Z,62.50
2018-07-15T21:35:20.123Z,62.60
2018-07-15T21:37:53.170Z,62.40
2018-07-15T21:40:26.320Z,62.60
2018-07-15T21:42:59.285Z,62.90
2018-07-15T21:45:32.447Z,62.70
2018-07-15T21:48:05.790Z,62.60
2018-07-15T21:50:40.327Z,62.70
2018-07-15T21:53:13.345Z,62.60
2018-07-15T21:55:46.275Z,63.10
2018-07-15T21:58:19.357Z,62.70
2018-07-15T22:00:52.753Z,63.20
2018-07-15T22:03:26.382Z,63.70
2018-07-15T22:05:59.508Z,64.00
2018-07-15T22:08:41.384Z,64.20
2018-07-15T22:11:14.544Z,64.40
2018-07-15T22:13:47.888Z,64.60
2018-07-15T22:16:21.095Z,64.60
2018-07-15T22:18:54.915Z,64.60
2018-07-15T22:21:27.848Z,64.70
2018-07-15T22:24:00.890Z,64.90
2018-07-15T22:26:34.191Z,65.20
2018-07-15T22:29:07.112Z,65.00
2018-07-15T22:34:12.059Z,65.30
2018-07-15T22:36:45.171Z,65.60
2018-07-15T22:39:18.957Z,65.50
2018-07-15T22:41:52.034Z,65.50
2018-07-15T22:44:25.805Z,65.70
2018-07-15T22:46:58.750Z,65.50
2018-07-15T22:49:32.362Z,65.80
2018-07-15T22:52:05.430Z,65.80
2018-07-15T22:54:38.354Z,65.90
2018-07-15T22:57:11.975Z,66.10
2018-07-15T22:59:45.090Z,66.10
2018-07-15T23:02:18.134Z,66.20
2018-07-15T23:05:58.740Z,66.30
2018-07-15T23:08:34.027Z,66.30
2018-07-15T23:11:06.975Z,66.30
2018-07-15T23:13:39.972Z,66.20
2018-07-15T23:16:13.177Z,66.00
2018-07-15T23:21:20.006Z,66.30
2018-07-15T23:23:52.936Z,66.30
2018-07-15T23:28:57.523Z,66.90
2018-07-15T23:31:30.936Z,66.20
2018-07-15T23:34:03.966Z,66.10
2018-07-15T23:36:37.364Z,66.10
2018-07-15T23:39:10.385Z,66.10
2018-07-15T23:41:43.464Z,66.30
2018-07-15T23:44:16.607Z,66.30
2018-07-15T23:46:49.903Z,66.30
2018-07-15T23:49:23.703Z,66.40
2018-07-15T23:51:56.981Z,66.40
2018-07-15T23:54:30.410Z,66.60
2018-07-15T23:57:03.836Z,66.40
2018-07-15T23:59:38.626Z,66.60
